Date,TemperatureHighF,TemperatureAvgF,TemperatureLowF,DewpointHighF,DewpointAvgF,DewpointLowF,HumidityHigh,HumidityAvg,HumidityLow,PressureMaxIn,PressureMinIn,WindSpeedMaxMPH,WindSpeedAvgMPH,GustSpeedMaxMPH,PrecipitationSumIn
2013-1-1,42,39,31,28,24,12,63,54,45,29.26,29.08,0,0,0,0.00
2013-1-2,36,28,24,13,10,7,57,46,38,29.43,29.22,0,0,0,0.00
2013-1-3,37,28,20,16,12,10,67,53,37,29.45,29.33,0,0,0,0.00
2013-1-4,39,33,27,19,18,15,61,53,43,29.38,29.24,0,0,0,0.00
2013-1-5,44,33,26,20,18,15,63,54,38,29.56,29.28,0,0,0,0.00
2013-1-6,50,37,31,35,26,20,82,66,43,29.50,29.23,0,0,0,0.00
2013-1-7,50,36,26,28,22,16,70,57,35,29.66,29.31,0,0,0,0.00
2013-1-8,51,36,24,30,24,16,75,63,43,29.68,29.59,0,0,0,0.00
2013-1-9,54,44,30,38,32,23,79,64,50,29.64,29.39,0,0,0,0.00
2013-1-10,53,43,32,31,24,20,64,47,32,29.79,29.51,0,0,0,0.00
2013-1-11,48,42,32,44,34,21,83,73,64,29.77,29.30,0,0,0,0.00
2013-1-12,49,47,44,44,42,39,85,83,82,29.42,29.29,0,0,0,0.00
2013-1-13,52,47,41,47,42,36,85,83,79,29.41,29.25,0,0,0,0.00
2013-1-14,59,52,40,53,44,31,86,75,45,29.53,29.19,0,0,0,0.00
2013-1-15,40,39,37,34,30,26,81,70,58,29.58,29.43,0,0,0,0.00
2013-1-16,43,38,36,38,33,29,83,82,74,29.44,29.03,0,0,0,0.00
2013-1-17,44,39,35,33,30,26,83,72,52,29.34,29.18,0,0,0,0.00
2013-1-18,36,30,23,29,13,3,78,50,28,29.76,29.23,0,0,0,0.00
2013-1-19,54,40,24,27,20,11,60,46,30,29.67,29.21,0,0,0,0.00
2013-1-20,57,45,33,28,21,8,54,39,24,29.29,28.97,0,0,0,0.00
2013-1-21,34,30,25,20,11,5,71,45,33,29.35,29.07,0,0,0,0.00
2013-1-22,25,19,13,16,-2,-9,69,40,27,29.48,29.09,0,0,0,0.00
2013-1-23,22,13,5,-2,-6,-10,62,44,33,29.53,29.42,0,0,0,0.00
2013-1-24,25,16,4,3,-3,-8,70,45,24,29.67,29.37,0,0,0,0.00
2013-1-25,26,17,9,12,1,-6,72,50,33,29.68,29.31,0,0,0,0.00
2013-1-26,28,19,7,10,4,0,74,55,35,29.62,29.30,0,0,0,0.00
2013-1-27,36,22,9,11,6,-2,64,50,33,29.78,29.62,0,0,0,0.00
2013-1-28,36,29,18,29,20,6,75,69,59,29.75,29.26,0,0,0,0.00
2013-1-29,54,42,33,45,33,25,83,70,56,29.39,29.25,0,0,0,0.00
2013-1-30,64,55,42,54,44,32,77,67,59,29.31,28.64,0,0,0,0.00
2013-1-31,61,43,30,50,22,7,71,44,31,29.55,28.39,0,0,0,0.00
2013-2-1,32,28,22,16,7,0,62,41,28,29.96,29.55,0,0,0,0.00
2013-2-2,32,25,16,14,4,0,64,42,27,30.03,29.75,0,0,0,0.00
2013-2-3,34,26,20,20,16,12,77,65,51,29.75,29.49,0,0,0,0.00
2013-2-4,32,26,20,18,8,5,69,48,34,29.72,29.54,0,0,0,0.00
2013-2-5,35,32,27,26,23,15,72,69,60,29.67,29.58,0,0,0,0.00
2013-2-6,41,33,25,25,19,12,72,58,40,30.35,29.61,15,0,15,0.00
2013-2-7,40,30,20,29,16,10,68,54,44,30.48,30.26,9,0,9,0.00
2013-2-8,42,38,29,35,30,23,76,73,65,30.26,29.58,28,5,28,0.00
2013-2-9,35,28,22,24,15,4,77,59,37,30.33,29.72,31,6,31,0.00
2013-2-10,41,26,12,21,10,-1,70,51,29,30.48,30.31,12,1,12,0.00
2013-2-11,56,47,31,50,41,21,88,80,67,30.34,29.64,30,3,30,0.00
2013-2-12,49,42,30,41,24,18,78,51,35,29.97,29.73,31,3,31,0.00
2013-2-13,47,34,24,29,24,17,79,66,48,29.96,29.65,12,1,12,0.00
2013-2-14,48,37,31,35,29,26,82,76,52,30.02,29.69,11,1,11,0.00
2013-2-15,59,42,30,39,31,25,83,66,38,30.03,29.91,13,2,13,0.00
2013-2-16,44,37,32,28,23,14,67,57,43,29.95,29.71,21,4,21,0.00
2013-2-17,34,29,20,15,3,-6,50,33,26,30.02,29.66,38,7,38,0.00
2013-2-18,39,26,18,8,2,-4,46,35,25,30.27,30.02,25,4,25,0.00
2013-2-19,52,41,26,43,29,8,84,63,43,30.22,29.68,22,3,22,0.00
2013-2-20,39,31,25,27,11,5,63,44,33,30.02,29.75,25,5,25,0.00
2013-2-21,38,29,23,12,9,6,54,43,33,30.27,30.00,32,6,32,0.00
2013-2-22,38,32,22,30,20,10,75,61,50,30.39,30.24,12,1,12,0.00
2013-2-23,46,42,37,42,36,29,85,82,75,30.25,29.76,21,3,21,0.00
2013-2-24,50,40,32,38,30,17,85,67,46,30.00,29.74,23,4,23,0.00
2013-2-25,45,37,28,26,22,16,65,55,41,30.23,29.99,14,1,14,0.00
2013-2-26,47,37,26,36,28,18,82,69,56,30.27,29.80,20,2,20,0.00
2013-2-27,55,47,41,49,40,33,86,75,54,29.81,29.49,22,3,22,0.00
2013-2-28,50,43,36,37,31,24,77,63,46,29.64,29.55,13,1,13,0.00
2013-3-1,46,39,32,30,25,22,78,58,42,29.78,29.62,23,3,23,0.00
2013-3-2,43,37,32,23,20,18,58,50,39,29.79,29.69,16,4,16,0.00
2013-3-3,40,33,28,18,16,13,57,48,38,29.77,29.68,20,4,20,0.00
2013-3-4,44,35,28,18,15,11,54,45,34,29.92,29.77,26,4,26,0.00
2013-3-5,51,37,28,29,21,16,76,54,35,30.02,29.91,16,2,16,0.00
2013-3-6,41,39,35,35,32,28,80,74,68,29.95,29.71,47,8,47,0.00
2013-3-7,41,36,33,31,29,28,81,75,62,30.06,29.85,24,6,24,0.00
2013-3-8,41,35,31,33,29,26,85,79,59,30.16,29.98,20,5,20,0.00
2013-3-9,60,42,29,26,22,16,71,47,19,30.31,30.14,18,4,18,0.00
2013-3-10,46,37,27,34,28,20,80,70,57,30.38,30.30,8,1,10,0.00
2013-3-11,54,43,29,46,37,24,85,77,66,30.32,30.09,14,2,14,0.00
2013-3-12,55,52,46,51,46,38,87,81,70,30.09,29.68,27,4,27,0.00
2013-3-13,53,43,35,39,27,21,76,55,31,29.91,29.81,18,2,18,0.00
2013-3-14,43,36,29,22,12,5,54,39,27,29.98,29.87,26,4,26,0.00
2013-3-15,50,39,28,22,15,6,46,37,29,30.01,29.73,17,3,17,0.00
2013-3-16,41,37,33,28,25,20,79,62,43,29.91,29.75,11,1,11,0.00
2013-3-17,40,34,28,28,20,14,82,58,37,30.29,29.91,22,3,22,0.00
2013-3-18,41,36,27,36,23,12,84,61,43,30.37,29.91,15,3,15,0.00
2013-3-19,51,42,38,38,34,16,85,74,40,29.91,29.69,19,4,19,0.00
2013-3-20,49,40,29,22,16,13,56,39,27,29.91,29.79,21,3,21,0.00
2013-3-21,38,33,29,26,20,10,75,58,38,29.80,29.64,14,2,14,0.00
2013-3-22,43,34,26,17,14,9,57,45,31,29.91,29.76,25,3,25,0.00
2013-3-23,49,38,28,18,16,14,60,43,28,29.94,29.82,25,3,25,0.00
2013-3-24,48,37,26,25,19,14,60,48,31,29.95,29.69,18,2,18,0.00
2013-3-25,40,36,32,31,29,25,83,74,57,29.69,29.43,30,3,30,0.00
2013-3-26,52,42,32,36,29,25,85,63,38,29.87,29.59,17,1,17,0.00
2013-3-27,54,43,34,28,25,20,69,50,27,30.00,29.87,20,3,21,0.00
2013-3-28,50,43,34,29,26,24,68,51,37,30.11,29.97,18,3,18,0.00
2013-3-29,57,45,35,28,25,22,65,47,28,30.16,30.06,18,2,18,0.00
2013-3-30,60,46,32,31,25,20,74,48,24,30.18,30.08,16,2,16,0.00
2013-3-31,55,45,32,45,34,24,85,65,47,30.15,29.69,21,2,21,0.00
2013-4-1,65,51,40,46,37,11,86,61,30,29.92,29.63,24,3,24,0.00
2013-4-2,46,38,26,18,12,9,62,36,24,30.10,29.92,29,3,29,0.00
2013-4-3,48,39,28,14,11,7,49,31,22,30.29,30.09,25,4,25,0.00
2013-4-4,49,38,25,25,17,7,53,42,28,30.40,30.10,16,2,16,0.00
2013-4-5,66,49,37,38,26,18,69,46,20,30.11,29.71,20,3,20,0.00
2013-4-6,49,41,31,23,18,12,62,40,27,30.33,29.99,20,4,20,0.00
2013-4-7,58,47,30,38,31,18,68,56,41,30.32,30.02,21,4,21,0.00
2013-4-8,71,59,48,47,41,35,69,51,36,30.08,29.97,16,2,16,0.00
2013-4-9,85,71,57,51,47,41,69,46,23,29.99,29.91,21,3,21,0.00
2013-4-10,70,63,53,52,47,43,80,58,45,29.95,29.79,23,2,23,0.00
2013-4-11,62,55,46,57,48,40,84,78,66,30.00,29.78,18,2,18,0.00
2013-4-12,46,45,43,42,41,39,86,85,80,29.98,29.68,23,4,23,0.00
2013-4-13,59,48,40,44,39,33,86,72,40,29.98,29.71,15,2,15,0.00
2013-4-14,63,52,39,45,34,25,85,55,26,30.20,29.97,25,2,25,0.00
2013-4-15,58,50,46,40,34,28,71,54,45,30.37,30.19,8,2,13,0.00
2013-4-16,68,57,48,52,47,39,77,69,56,30.36,30.14,20,4,20,0.00
2013-4-17,67,59,45,54,46,37,83,64,44,30.28,30.10,15,2,15,0.00
2013-4-18,58,52,42,54,45,35,88,76,63,30.34,30.09,13,2,13,0.00
2013-4-19,74,65,56,60,58,52,89,77,60,30.10,29.68,30,5,30,0.00
2013-4-20,65,54,47,59,34,22,82,52,29,30.29,29.68,19,4,19,0.00
2013-4-21,54,44,34,27,22,16,69,42,32,30.61,30.28,19,3,19,0.00
2013-4-22,49,45,33,37,32,24,73,61,52,30.63,30.45,22,3,22,0.00
2013-4-23,50,46,43,40,37,33,81,71,66,30.46,30.10,24,4,24,0.00
2013-4-24,68,53,37,49,42,32,83,67,49,30.10,29.85,17,3,17,0.00
2013-4-25,64,53,43,46,33,26,70,47,26,30.27,29.89,20,4,20,0.00
2013-4-26,65,52,37,36,31,26,70,48,29,30.39,30.27,14,2,14,0.00
2013-4-27,66,52,37,36,31,27,75,46,24,30.42,30.30,12,1,12,0.00
2013-4-28,67,53,36,44,33,22,74,49,27,30.33,30.22,14,2,14,0.00
2013-4-29,56,54,51,48,46,44,83,77,65,30.24,30.16,14,2,14,0.00
2013-4-30,65,56,45,49,43,34,82,63,40,30.32,30.17,13,2,13,0.00
2013-5-1,63,50,36,44,37,27,78,62,46,30.47,30.31,15,1,15,0.00
2013-5-2,66,52,36,43,36,27,75,56,37,30.46,30.33,11,1,11,0.00
2013-5-3,60,52,43,40,37,32,69,56,39,30.45,30.35,19,3,19,0.00
2013-5-4,62,52,42,43,37,33,72,59,44,30.36,30.26,14,2,14,0.00
2013-5-5,58,50,46,39,36,33,70,58,48,30.29,30.22,18,2,18,0.00
2013-5-6,61,52,49,46,42,39,75,68,52,30.26,30.15,13,2,13,0.00
2013-5-7,64,56,50,51,46,42,79,71,58,30.16,30.07,13,2,13,0.00
2013-5-8,74,61,56,62,52,47,83,71,54,30.08,29.95,18,2,18,0.00
2013-5-9,74,62,55,58,52,48,88,73,43,30.00,29.89,17,1,17,0.00
2013-5-10,78,66,53,60,53,49,88,66,44,30.01,29.88,15,2,15,0.00
2013-5-11,77,66,62,64,59,51,88,79,57,29.92,29.70,16,2,16,0.00
2013-5-12,70,61,46,59,43,25,87,56,24,29.96,29.67,26,3,26,0.00
2013-5-13,58,49,36,33,27,22,74,46,27,30.10,29.96,20,2,20,0.00
2013-5-14,64,50,35,30,26,21,68,42,22,30.14,30.03,18,2,18,0.00
2013-5-15,75,61,46,56,46,28,73,58,44,30.09,29.69,19,2,19,0.00
2013-5-16,78,66,55,58,52,42,84,63,30,29.85,29.70,12,1,12,0.00
2013-5-17,79,64,52,56,44,38,77,51,27,30.19,29.83,15,2,15,0.00
2013-5-18,66,58,50,53,49,42,83,73,61,30.31,30.19,13,1,13,0.00
2013-5-19,60,58,55,56,53,51,87,85,83,30.29,30.15,13,2,13,0.00
2013-5-20,78,68,60,67,62,56,88,81,61,30.17,29.97,9,1,9,0.00
2013-5-21,88,74,63,68,64,58,88,71,47,29.98,29.85,14,2,14,0.00
2013-5-22,87,74,66,71,66,62,90,78,54,29.92,29.83,14,2,14,0.00
2013-5-23,81,72,66,67,63,58,84,73,56,29.91,29.76,20,4,20,0.00
2013-5-24,69,58,45,64,52,38,87,80,68,29.97,29.69,25,4,25,0.00
2013-5-25,61,52,44,44,37,31,84,61,36,30.02,29.92,37,6,37,0.00
2013-5-26,71,57,44,37,34,30,68,44,25,30.20,29.99,25,3,25,0.00
2013-5-27,77,60,41,45,37,31,79,47,22,30.26,30.13,14,1,14,0.00
2013-5-28,68,59,50,55,50,42,78,70,48,30.22,30.10,12,0,12,0.00
2013-5-29,92,75,57,69,60,50,88,62,35,30.11,30.01,14,2,14,0.00
2013-5-30,94,82,70,70,64,60,79,57,33,30.14,30.05,13,2,13,0.00
2013-5-31,92,80,70,68,65,60,83,61,36,30.13,30.00,15,2,15,0.00
2013-6-1,92,80,69,69,64,61,82,62,37,30.04,29.92,20,3,20,0.00
2013-6-2,89,77,70,71,66,63,86,70,47,29.94,29.81,20,3,20,0.00
2013-6-3,78,71,66,69,66,62,89,85,71,29.87,29.78,11,1,11,0.00
2013-6-4,80,66,56,64,48,42,88,55,30,30.09,29.86,20,2,20,0.00
2013-6-5,75,63,48,56,50,41,85,65,45,30.19,30.08,11,1,11,0.00
2013-6-6,70,64,55,60,57,51,89,79,60,30.12,29.97,14,2,14,0.00
2013-6-7,71,66,62,68,62,58,90,89,85,29.98,29.54,17,2,17,0.00
2013-6-8,79,69,58,66,62,55,90,78,61,30.05,29.51,17,2,17,0.00
2013-6-9,86,72,60,64,60,56,89,68,40,30.17,30.05,11,1,11,0.00
2013-6-10,70,68,64,66,63,57,88,84,74,30.15,29.80,14,2,14,0.00
2013-6-11,84,75,68,67,64,58,88,69,50,29.81,29.64,21,2,21,0.00
2013-6-12,83,73,63,59,56,52,76,57,36,29.85,29.73,22,3,22,0.00
2013-6-13,78,67,61,64,58,51,84,72,56,29.84,29.38,18,2,18,0.00
2013-6-14,75,62,55,56,50,46,84,67,47,29.90,29.45,21,3,21,0.00
2013-6-15,84,69,56,57,52,44,77,56,33,30.01,29.89,17,1,17,0.00
2013-6-16,86,72,59,66,58,51,81,62,41,30.00,29.80,18,2,18,0.00
2013-6-17,88,75,64,67,63,58,88,68,43,29.92,29.83,15,1,15,0.00
2013-6-18,78,68,63,66,61,57,86,78,61,29.90,29.78,14,1,14,0.00
2013-6-19,80,68,57,60,54,47,87,63,33,30.16,29.84,16,2,16,0.00
2013-6-20,79,67,54,56,51,46,83,59,38,30.27,30.15,16,2,16,0.00
2013-6-21,80,68,55,58,51,46,77,58,37,30.31,30.24,15,1,15,0.00
2013-6-22,82,69,54,62,54,43,79,60,40,30.26,30.14,12,1,12,0.00
2013-6-23,86,74,59,71,63,50,88,70,53,30.20,30.07,15,2,15,0.00
2013-6-24,93,78,70,74,68,57,90,72,40,30.08,29.97,16,1,16,0.00
2013-6-25,93,79,67,71,66,61,85,65,42,30.00,29.83,14,1,14,0.00
2013-6-26,94,80,71,71,66,62,87,62,40,29.87,29.76,13,2,13,0.00
2013-6-27,86,77,71,73,70,67,90,79,61,29.82,29.59,17,2,17,0.00
2013-6-28,89,78,70,71,68,65,88,74,48,29.60,29.48,13,2,13,0.00
2013-6-29,84,75,67,71,67,63,90,79,59,29.70,29.49,14,1,14,0.00
2013-6-30,84,75,69,74,69,65,89,83,68,29.90,29.70,12,1,12,0.00
2013-7-1,84,76,73,74,70,68,87,83,67,30.04,29.89,12,2,14,0.00
2013-7-2,85,77,73,73,70,68,86,79,65,30.19,30.04,13,2,13,0.00
2013-7-3,84,77,70,77,70,66,88,81,66,30.25,30.16,11,1,11,0.00
2013-7-4,91,80,72,74,70,68,88,73,49,30.26,30.16,13,1,13,0.00
2013-7-5,93,82,72,73,70,67,88,68,46,30.22,30.10,14,1,14,0.00
2013-7-6,97,84,74,74,70,62,87,65,39,30.15,30.02,13,2,13,0.00
2013-7-7,96,84,74,74,70,66,84,64,45,30.07,29.93,14,2,14,0.00
2013-7-8,91,77,70,70,65,56,81,67,49,30.06,29.99,14,1,14,0.00
2013-7-9,90,78,69,72,67,61,84,70,49,30.07,29.99,11,1,11,0.00
2013-7-10,89,79,71,75,70,67,88,75,56,30.03,29.82,14,2,14,0.00
2013-7-11,87,78,75,72,70,68,86,76,54,29.90,29.81,12,1,12,0.00
2013-7-12,76,73,70,70,65,60,86,76,58,30.04,29.89,18,3,18,0.00
2013-7-13,87,78,71,74,70,66,87,78,63,30.28,30.04,14,1,14,0.00
2013-7-14,91,80,73,74,71,68,86,73,55,30.33,30.24,9,1,11,0.00
2013-7-15,97,84,74,74,70,67,84,66,44,30.26,30.11,12,1,12,0.00
2013-7-16,97,84,75,72,68,63,84,61,35,30.18,30.11,15,1,15,0.00
2013-7-17,97,83,72,72,68,65,87,63,37,30.17,30.07,10,1,10,0.00
2013-7-18,101,86,75,77,71,67,83,63,40,30.08,29.94,13,1,13,0.00
2013-7-19,99,87,79,78,74,70,86,67,42,29.98,29.81,14,2,14,0.00
2013-7-20,95,85,77,74,72,67,84,66,43,29.85,29.72,15,2,15,0.00
2013-7-21,88,78,72,73,70,66,89,77,50,29.94,29.82,13,1,13,0.00
2013-7-22,86,79,73,76,73,70,91,83,68,29.93,29.77,12,1,12,0.00
2013-7-23,90,79,73,78,72,69,91,80,61,29.77,29.56,16,1,16,0.00
2013-7-24,88,77,70,70,66,55,89,69,51,29.89,29.62,14,2,14,0.00
2013-7-25,72,67,64,58,56,53,79,69,56,30.02,29.88,17,3,17,0.00
2013-7-26,82,71,65,66,61,58,84,71,52,30.05,29.96,12,2,12,0.00
2013-7-27,84,73,63,66,62,58,88,72,46,30.05,29.95,17,2,17,0.00
2013-7-28,80,72,62,68,64,54,86,76,59,29.98,29.91,10,2,16,0.00
2013-7-29,88,74,63,69,63,52,89,70,38,30.10,29.93,11,1,14,0.00
2013-7-30,84,71,58,58,56,52,83,61,37,30.16,30.09,13,1,13,0.00
2013-7-31,82,71,59,62,58,53,84,65,44,30.15,30.03,10,1,10,0.00
2013-8-1,76,71,68,67,64,61,89,80,69,30.03,29.81,14,1,14,0.00
2013-8-2,87,75,68,67,64,58,89,69,41,29.92,29.79,12,1,12,0.00
2013-8-3,79,72,66,68,64,61,87,78,60,29.93,29.86,14,1,14,0.00
2013-8-4,82,72,61,62,56,49,89,61,35,29.97,29.84,17,2,17,0.00
2013-8-5,82,68,58,56,51,44,75,55,30,30.04,29.97,12,1,12,0.00
2013-8-6,81,70,56,61,55,48,83,62,37,30.11,30.03,13,1,13,0.00
2013-8-7,79,72,68,66,63,60,81,74,61,30.13,30.06,15,2,15,0.00
2013-8-8,84,75,71,73,68,65,87,80,66,30.06,29.99,15,1,15,0.00
2013-8-9,88,79,74,74,71,68,88,78,58,30.02,29.81,14,2,14,0.00
2013-8-10,87,77,71,72,66,61,89,71,47,30.04,29.85,11,1,11,0.00
2013-8-11,82,72,61,64,60,55,86,67,46,30.11,30.02,11,1,11,0.00
2013-8-12,83,72,65,68,64,59,86,74,50,30.03,29.92,11,0,11,0.00
2013-8-13,84,73,66,70,65,59,84,78,51,29.92,29.70,17,1,17,0.00
2013-8-14,76,68,57,65,52,45,83,58,39,30.04,29.73,22,3,22,0.00
2013-8-15,79,65,52,54,50,46,86,62,35,30.14,30.03,13,1,13,0.00
2013-8-16,80,67,55,55,51,47,78,59,34,30.20,30.11,11,1,11,0.00
2013-8-17,81,67,55,60,53,47,78,63,41,30.26,30.19,10,0,10,0.00
2013-8-18,78,68,61,63,57,54,82,70,46,30.25,30.11,13,1,13,0.00
2013-8-19,78,69,59,62,58,52,83,69,50,30.14,30.04,11,1,11,0.00
2013-8-20,86,74,64,68,63,58,84,71,47,30.12,30.05,12,1,12,0.00
2013-8-21,92,77,67,71,65,59,86,69,38,30.17,30.06,11,1,11,0.00
2013-8-22,84,74,70,72,67,64,87,79,63,30.07,29.88,10,1,10,0.00
2013-8-23,82,72,62,66,62,56,88,72,44,30.07,29.86,11,1,11,0.00
2013-8-24,80,68,58,60,57,52,83,68,44,30.33,30.06,13,1,13,0.00
2013-8-25,84,67,54,60,52,48,84,61,35,30.40,30.25,11,1,11,0.00
2013-8-26,86,73,64,63,58,50,74,61,43,30.25,29.92,15,2,15,0.00
2013-8-27,91,77,69,68,64,61,82,65,40,29.92,29.83,14,1,14,0.00
2013-8-28,81,73,66,72,68,62,89,82,66,29.89,29.82,7,0,7,0.00
2013-8-29,80,73,69,68,65,63,88,77,59,30.02,29.85,13,1,13,0.00
2013-8-30,84,74,68,68,65,62,85,73,55,30.01,29.87,11,1,11,0.00
2013-8-31,89,77,68,73,68,64,88,75,56,29.89,29.79,14,2,14,0.00
2013-9-1,88,77,72,73,70,68,89,80,58,29.85,29.77,17,1,17,0.00
2013-9-2,84,75,70,74,71,66,89,86,64,29.79,29.71,7,0,7,0.00
2013-9-3,84,74,64,71,65,55,88,75,50,29.88,29.70,14,1,14,0.00
2013-9-4,84,70,60,58,54,50,83,61,36,30.01,29.88,14,1,14,0.00
2013-9-5,79,69,56,59,52,41,77,57,38,30.12,29.94,13,2,13,0.00
2013-9-6,74,61,50,48,44,40,75,57,34,30.23,30.12,15,1,15,0.00
2013-9-7,79,62,47,54,48,41,84,61,32,30.13,29.91,14,1,14,0.00
2013-9-8,85,72,60,64,56,45,76,58,41,30.05,29.81,19,2,19,0.00
2013-9-9,74,65,52,57,50,42,80,60,44,30.22,30.05,14,1,14,0.00
2013-9-10,88,76,67,70,65,57,78,69,54,30.18,30.05,12,1,12,0.00
2013-9-11,94,81,72,74,70,67,85,69,49,30.12,29.98,15,1,15,0.00
2013-9-12,90,78,71,72,68,63,87,72,47,30.00,29.69,15,2,15,0.00
2013-9-13,79,70,60,66,59,47,90,70,45,29.84,29.63,16,2,16,0.00
2013-9-14,69,59,49,48,45,41,77,60,44,30.13,29.84,17,2,17,0.00
2013-9-15,77,59,43,53,44,37,81,61,33,30.22,30.08,12,1,12,0.00
2013-9-16,72,62,57,58,53,47,80,73,53,30.19,30.03,13,1,13,0.00
2013-9-17,66,56,44,48,39,33,75,54,36,30.41,30.19,18,2,18,0.00
2013-9-18,70,55,41,48,42,34,80,64,41,30.34,30.19,11,1,11,0.00
2013-9-19,75,60,46,54,48,41,85,68,40,30.20,30.08,15,1,15,0.00
2013-9-20,77,63,51,59,52,46,86,70,47,30.09,30.00,14,1,14,0.00
2013-9-21,78,66,50,65,57,43,84,74,51,30.02,29.68,22,2,22,0.00
2013-9-22,72,64,54,63,51,39,83,63,38,29.90,29.64,17,3,17,0.00
2013-9-23,69,56,43,44,40,32,79,56,38,30.03,29.90,14,2,14,0.00
2013-9-24,74,56,44,49,41,31,74,59,37,30.05,29.88,16,1,16,0.00
2013-9-25,74,59,46,53,46,38,81,64,38,29.95,29.87,8,1,8,0.00
2013-9-26,71,58,48,57,49,41,84,72,53,30.08,29.93,9,1,9,0.00
2013-9-27,72,61,52,54,49,46,80,65,46,30.25,30.08,13,1,13,0.00
2013-9-28,74,64,54,53,49,42,78,60,42,30.30,30.21,15,1,15,0.00
2013-9-29,72,60,49,56,47,40,81,65,44,30.21,30.06,13,1,13,0.00
2013-9-30,74,59,48,55,48,40,82,68,48,30.07,29.98,10,1,10,0.00
2013-10-1,82,65,52,58,52,42,82,64,42,30.01,29.90,14,1,14,0.00
2013-10-2,85,70,58,60,57,53,86,66,39,30.01,29.91,17,1,17,0.00
2013-10-3,78,67,58,58,54,48,84,65,43,30.11,30.01,10,0,10,0.00
2013-10-4,87,71,57,66,58,46,81,65,42,30.06,29.96,9,0,9,0.00
2013-10-5,75,68,65,63,61,60,86,80,66,30.08,30.00,9,1,11,0.00
2013-10-6,74,68,65,67,64,61,87,85,78,30.08,30.00,11,1,11,0.00
2013-10-7,78,69,59,68,62,51,86,80,66,30.01,29.80,25,3,25,0.00
2013-10-8,69,58,50,52,44,41,79,62,40,30.28,29.99,17,1,17,0.00
2013-10-9,63,60,52,49,47,42,77,62,51,30.34,30.23,30,4,30,0.00
2013-10-10,63,60,57,57,54,48,84,79,64,30.23,30.00,25,5,25,0.00
2013-10-11,64,63,62,58,57,56,85,83,76,30.04,29.94,26,4,26,0.00
2013-10-12,70,63,61,56,54,49,82,70,57,30.22,30.01,24,5,24,0.00
2013-10-13,67,61,58,54,49,46,76,66,52,30.35,30.21,23,4,23,0.00
2013-10-14,66,56,46,52,47,40,85,70,55,30.34,30.24,11,1,11,0.00
2013-10-15,72,56,46,54,45,40,86,68,44,30.25,30.08,14,1,14,0.00
2013-10-16,67,61,54,55,52,47,79,74,60,30.09,29.92,8,1,8,0.00
2013-10-17,73,65,60,59,56,52,80,73,60,29.93,29.70,9,1,9,0.00
2013-10-18,68,60,46,58,44,36,77,57,38,29.99,29.70,19,2,19,0.00
2013-10-19,66,53,41,53,44,34,84,72,53,29.99,29.76,10,0,10,0.00
2013-10-20,65,53,43,53,38,32,84,59,33,30.08,29.76,15,2,15,0.00
2013-10-21,69,52,38,44,38,30,81,62,32,30.15,29.99,15,1,15,0.00
2013-10-22,71,55,43,50,43,36,83,66,39,29.99,29.76,18,1,18,0.00
2013-10-23,52,47,40,47,40,32,83,75,64,29.81,29.59,15,1,15,0.00
2013-10-24,54,42,35,34,29,24,82,62,33,30.03,29.76,16,1,16,0.00
2013-10-25,55,42,34,32,28,24,69,57,36,30.24,30.03,16,2,16,0.00
2013-10-26,58,44,30,32,28,21,76,57,31,30.23,29.90,22,2,22,0.00
2013-10-27,60,48,37,33,31,27,71,52,33,30.13,29.87,20,2,20,0.00
2013-10-28,67,46,32,36,31,20,73,57,33,30.28,30.12,11,1,11,0.00
2013-10-29,60,47,39,45,36,30,79,67,49,30.37,30.28,16,1,16,0.00
2013-10-30,57,48,37,50,40,28,80,76,70,30.33,30.18,4,0,4,0.00
2013-10-31,69,61,50,58,52,43,84,73,61,30.22,29.82,15,2,15,0.00
2013-11-1,71,64,58,59,56,50,82,74,64,29.82,29.58,24,3,24,0.00
2013-11-2,70,59,51,58,47,37,86,65,47,29.78,29.61,10,1,10,0.00
2013-11-3,54,46,34,39,30,14,72,54,38,30.42,29.78,17,3,17,0.00
2013-11-4,50,38,32,24,19,12,57,46,36,30.62,30.42,17,2,17,0.00
2013-11-5,58,45,34,38,31,22,71,57,45,30.62,30.47,12,1,12,0.00
2013-11-6,63,50,32,53,39,20,81,66,48,30.48,30.07,13,2,13,0.00
2013-11-7,64,56,36,57,48,22,83,75,53,30.07,29.76,20,2,20,0.00
2013-11-8,50,42,32,28,22,17,65,46,35,30.24,29.95,24,2,24,0.00
2013-11-9,52,41,29,33,24,15,73,52,34,30.30,30.00,12,1,12,0.00
2013-11-10,63,51,42,34,29,23,62,44,29,30.08,29.82,26,3,26,0.00
2013-11-11,58,48,35,33,26,19,59,43,29,30.23,29.98,20,3,20,0.00
2013-11-12,50,39,29,34,22,10,68,50,38,30.29,29.92,29,4,29,0.00
2013-11-13,41,31,22,14,11,6,58,44,26,30.37,30.28,23,2,23,0.00
2013-11-14,56,40,27,20,14,9,57,37,16,30.30,30.18,19,2,19,0.00
2013-11-15,59,43,33,31,26,19,66,53,33,30.26,30.16,7,0,7,0.00
2013-11-16,55,46,37,44,36,26,79,68,59,30.34,30.23,8,0,8,0.00
2013-11-17,66,56,47,58,48,38,85,74,61,30.25,29.79,9,1,9,0.00
2013-11-18,69,59,46,57,40,25,80,53,27,29.79,29.63,16,3,16,0.00
2013-11-19,51,44,29,25,21,17,61,41,34,30.34,29.79,24,4,24,0.00
2013-11-20,50,34,25,21,16,13,68,50,27,30.58,30.33,16,1,16,0.00
2013-11-21,54,43,29,36,28,16,69,58,46,30.58,30.38,12,1,12,0.00
2013-11-22,59,52,44,48,39,32,75,61,52,30.38,29.91,9,1,13,0.00
2013-11-23,54,44,32,41,22,10,62,43,33,30.03,29.91,26,4,26,0.00
2013-11-24,32,26,17,10,-1,-4,43,31,26,30.41,30.01,35,6,35,0.00
2013-11-25,37,27,16,13,6,-2,57,42,28,30.52,30.35,13,1,13,0.00
2013-11-26,53,39,30,46,27,13,81,61,36,30.36,29.70,17,1,17,0.00
2013-11-27,63,47,34,57,38,15,84,70,45,29.79,29.32,18,5,28,0.00
2013-11-28,38,31,25,17,11,8,57,43,31,30.48,29.78,24,4,24,0.00
2013-11-29,43,32,24,17,14,11,62,48,34,30.71,30.46,16,1,16,0.00
2013-11-30,43,34,25,24,17,8,62,50,40,30.71,30.34,12,1,12,0.00
2013-12-1,54,40,29,31,26,18,68,57,39,30.34,30.01,9,1,9,0.00
2013-12-2,58,38,31,31,25,21,72,60,32,30.01,29.86,7,0,7,0.00
2013-12-3,57,42,32,38,32,24,77,68,44,30.00,29.85,8,0,8,0.00
2013-12-4,53,43,31,42,35,24,80,73,61,30.11,30.00,7,0,7,0.00
2013-12-5,62,54,46,52,46,40,82,73,58,30.11,29.93,15,1,15,0.00
2013-12-6,63,50,39,55,41,26,78,69,61,30.12,29.88,15,3,15,0.00
2013-12-7,41,36,28,30,25,16,76,64,50,30.50,30.06,21,3,21,0.00
2013-12-8,38,30,26,32,20,10,80,65,50,30.57,30.30,10,1,10,0.00
2013-12-9,47,39,33,42,34,28,84,82,77,30.32,29.96,14,2,14,0.00
2013-12-10,35,32,25,29,26,19,82,80,76,30.16,29.85,11,1,11,0.00
2013-12-11,34,26,20,20,15,9,77,63,50,30.36,30.16,15,1,15,0.00
2013-12-12,29,22,16,13,5,0,70,48,33,30.36,30.18,22,2,22,0.00
2013-12-13,38,27,16,14,9,2,60,49,34,30.33,30.15,16,1,16,0.00
2013-12-14,50,36,26,43,26,14,77,68,60,30.42,29.66,19,2,19,0.00
2013-12-15,55,39,30,47,28,16,78,64,50,29.88,29.47,23,3,23,0.00
2013-12-16,32,27,17,18,7,1,57,44,32,30.24,29.86,16,3,19,0.00
2013-12-17,44,31,21,34,19,5,73,61,43,30.22,29.90,14,1,14,0.00
2013-12-18,39,29,23,19,15,11,66,54,40,30.19,29.90,19,2,19,0.00
2013-12-19,49,37,21,27,20,10,67,50,36,30.21,30.04,8,1,12,0.00
2013-12-20,56,47,33,40,29,22,68,50,36,30.10,29.98,15,2,15,0.00
2013-12-21,70,59,51,50,44,39,66,57,46,30.02,29.90,25,3,25,0.00
2013-12-22,73,64,62,61,53,49,80,67,53,29.99,29.84,23,5,23,0.00
2013-12-23,63,56,42,58,49,32,83,75,68,30.14,29.88,23,2,23,0.00
2013-12-24,43,36,27,32,20,16,68,53,38,30.35,30.08,21,4,21,0.00
2013-12-25,38,26,19,17,8,3,66,47,27,30.52,30.35,22,2,22,0.00
2013-12-26,43,29,20,23,19,12,78,65,44,30.42,30.16,14,1,14,0.00
2013-12-27,46,30,21,22,17,12,81,60,28,30.39,30.26,16,1,16,0.00
2013-12-28,58,41,23,26,23,15,75,52,28,30.31,30.08,18,2,18,0.00
2013-12-29,59,45,39,53,35,24,84,69,48,30.08,29.38,23,2,23,0.00
2013-12-30,47,38,25,37,27,9,81,65,46,30.17,29.71,18,3,18,0.00
2013-12-31,39,29,21,22,12,7,59,48,41,30.31,30.06,18,2,18,0.00
2014-1-1,44,31,20,28,15,6,69,52,33,30.42,30.20,11,1,11,0.00
2014-1-2,41,33,25,33,26,19,84,76,69,30.20,29.58,21,5,21,0.00